This is the latest recevied weather packets stored in our database for station/object LX1CU-13. If no packets are shown the sender has not sent any weather packets the latest 10 day(s).
| Time | Temp. | Humidity | Pressure | Rain* | Wind** | Luminosity | Snow |
|---|---|---|---|---|---|---|---|
| 1777802618 | 20° C | 48% | 1010 hPa | 0 mm | - | - | - |
| 1777802318 | 20° C | 46% | 1009.9 hPa | 0 mm | - | - | - |
| 1777802018 | 20.56° C | 46% | 1010 hPa | 0 mm | - | - | - |
| 1777801719 | 21.11° C | 45% | 1010 hPa | 0 mm | - | - | - |
| 1777801418 | 21.67° C | 46% | 1009.8 hPa | 0 mm | - | - | - |
| 1777801118 | 21.67° C | 45% | 1009.8 hPa | 0 mm | - | - | - |
| 1777800819 | 21.67° C | 45% | 1009.7 hPa | 0 mm | - | - | - |
| 1777800518 | 21.11° C | 46% | 1009.8 hPa | 0 mm | - | - | - |
| 1777800218 | 21.11° C | 45% | 1009.7 hPa | 0 mm | - | - | - |
| 1777799918 | 21.11° C | 44% | 1009.8 hPa | 0 mm | - | - | - |
| 1777799618 | 21.67° C | 43% | 1009.7 hPa | 0 mm | - | - | - |
| 1777799319 | 21.67° C | 44% | 1009.8 hPa | 0 mm | - | - | - |
| 1777799018 | 21.11° C | 44% | 1009.8 hPa | 0 mm | - | - | - |
| 1777798719 | 21.11° C | 45% | 1009.9 hPa | 0 mm | - | - | - |
| 1777798419 | 21.11° C | 46% | 1009.8 hPa | 0 mm | - | - | - |
| 1777798119 | 21.11° C | 45% | 1009.8 hPa | 0 mm | - | - | - |
| 1777797819 | 21.67° C | 43% | 1009.8 hPa | 0 mm | - | - | - |
| 1777797519 | 23.33° C | 42% | 1009.8 hPa | 0 mm | - | - | - |
| 1777797219 | 23.89° C | 43% | 1009.8 hPa | 0 mm | - | - | - |
| 1777796919 | 23.33° C | 47% | 1009.8 hPa | 0 mm | - | - | - |
| 1777796619 | 22.22° C | 48% | 1009.6 hPa | 0 mm | - | - | - |
| 1777796319 | 21.11° C | 51% | 1009.7 hPa | 0 mm | - | - | - |
| 1777796019 | 20° C | 52% | 1009.8 hPa | 0 mm | - | - | - |
| 1777795719 | 16.67° C | 60% | 1009.6 hPa | 0 mm | - | - | - |
| 1777795419 | 16.67° C | 60% | 1009.5 hPa | 0 mm | - | - | - |
* Rain latest hour (hover to see other rain measurements)
** Current wind speed in m/s (hover to see current wind gust speed)